Terminal Aerodrome Forecast
Issued by NWS Sioux Falls, SD

Home | Current Version | Previous Version | Graphics & Text | Print | Product List | Glossary On
Versions: 1 2 3 4 5 6 7 8 9 10 11 12 13 14 15 16 17 18 19 20 21 22 23 24 25 26 27 28
000
FTUS43 KFSD 251120
TAFFSD
TAF
KFSD 251120Z 2512/2612 16006KT P6SM SCT080 BKN140
     FM251700 05008KT P6SM SCT070 BKN120
     FM252200 03012KT P6SM OVC015
     FM260600 01014KT 5SM -SN BR OVC010=

USA.gov is the U.S. government's official web portal to all federal, state and local government web resources and services.